sensor_id;sensor_type;location;lat;lon;timestamp;pressure;altitude;pressure_sealevel;temperature;humidity
22753;BME280;11543;43.144;24.684;2023-07-31T00:00:58;98326.94;;;26.01;69.83
22753;BME280;11543;43.144;24.684;2023-07-31T00:03:23;98325.78;;;25.97;70.22
22753;BME280;11543;43.144;24.684;2023-07-31T00:05:49;98318.09;;;25.94;70.12
22753;BME280;11543;43.144;24.684;2023-07-31T00:08:14;98316.16;;;25.95;70.14
22753;BME280;11543;43.144;24.684;2023-07-31T00:10:39;98323.94;;;26.03;69.67
22753;BME280;11543;43.144;24.684;2023-07-31T00:13:07;98309.00;;;25.94;69.90
22753;BME280;11543;43.144;24.684;2023-07-31T00:15:33;98313.16;;;25.96;70.44
22753;BME280;11543;43.144;24.684;2023-07-31T00:17:58;98304.28;;;25.84;70.46
22753;BME280;11543;43.144;24.684;2023-07-31T00:20:26;98292.13;;;25.70;71.17
22753;BME280;11543;43.144;24.684;2023-07-31T00:22:51;98302.06;;;25.76;70.46
22753;BME280;11543;43.144;24.684;2023-07-31T00:25:17;98288.56;;;25.75;70.18
22753;BME280;11543;43.144;24.684;2023-07-31T00:27:42;98310.91;;;25.88;69.56
22753;BME280;11543;43.144;24.684;2023-07-31T00:30:10;98296.59;;;25.86;69.23
22753;BME280;11543;43.144;24.684;2023-07-31T00:32:36;98306.50;;;25.87;68.94
22753;BME280;11543;43.144;24.684;2023-07-31T00:35:01;98304.28;;;25.84;68.86
22753;BME280;11543;43.144;24.684;2023-07-31T00:37:27;98303.75;;;25.87;68.63
22753;BME280;11543;43.144;24.684;2023-07-31T00:39:52;98298.84;;;25.94;68.19
22753;BME280;11543;43.144;24.684;2023-07-31T00:42:18;98290.59;;;25.94;67.67
22753;BME280;11543;43.144;24.684;2023-07-31T00:44:43;98278.75;;;25.89;67.78
22753;BME280;11543;43.144;24.684;2023-07-31T00:47:09;98283.97;;;25.90;67.88
22753;BME280;11543;43.144;24.684;2023-07-31T00:49:34;98271.88;;;25.86;67.92
22753;BME280;11543;43.144;24.684;2023-07-31T00:52:00;98293.69;;;26.03;67.72
22753;BME280;11543;43.144;24.684;2023-07-31T00:54:27;98284.28;;;25.99;67.78
22753;BME280;11543;43.144;24.684;2023-07-31T00:56:54;98278.50;;;25.95;68.01
22753;BME280;11543;43.144;24.684;2023-07-31T00:59:20;98271.34;;;25.89;68.45
22753;BME280;11543;43.144;24.684;2023-07-31T01:01:46;98277.94;;;25.93;68.67
22753;BME280;11543;43.144;24.684;2023-07-31T01:04:12;98268.53;;;25.79;69.00
22753;BME280;11543;43.144;24.684;2023-07-31T01:09:44;98267.41;;;25.75;69.69
22753;BME280;11543;43.144;24.684;2023-07-31T01:12:14;98269.31;;;25.69;69.92
22753;BME280;11543;43.144;24.684;2023-07-31T01:14:40;98258.50;;;25.58;70.42
22753;BME280;11543;43.144;24.684;2023-07-31T01:17:05;98236.22;;;25.49;70.49
22753;BME280;11543;43.144;24.684;2023-07-31T01:19:31;98253.53;;;25.55;70.72
22753;BME280;11543;43.144;24.684;2023-07-31T01:27:34;98247.53;;;25.63;69.75
22753;BME280;11543;43.144;24.684;2023-07-31T01:30:15;98231.88;;;25.63;69.21
22753;BME280;11543;43.144;24.684;2023-07-31T01:32:43;98215.38;;;25.58;68.82
22753;BME280;11543;43.144;24.684;2023-07-31T01:35:09;98211.28;;;25.61;68.43
22753;BME280;11543;43.144;24.684;2023-07-31T01:37:35;98220.88;;;25.58;68.56
22753;BME280;11543;43.144;24.684;2023-07-31T01:40:01;98231.06;;;25.63;68.61
22753;BME280;11543;43.144;24.684;2023-07-31T01:42:26;98206.81;;;25.50;68.18
22753;BME280;11543;43.144;24.684;2023-07-31T01:44:52;98223.03;;;25.51;68.37
22753;BME280;11543;43.144;24.684;2023-07-31T01:47:17;98212.28;;;25.45;68.45
22753;BME280;11543;43.144;24.684;2023-07-31T01:49:43;98218.31;;;25.42;68.72
22753;BME280;11543;43.144;24.684;2023-07-31T01:52:08;98216.94;;;25.39;68.55
22753;BME280;11543;43.144;24.684;2023-07-31T01:54:34;98222.75;;;25.48;67.95
22753;BME280;11543;43.144;24.684;2023-07-31T01:56:59;98237.59;;;25.52;67.69
22753;BME280;11543;43.144;24.684;2023-07-31T01:59:25;98232.59;;;25.38;67.69
22753;BME280;11543;43.144;24.684;2023-07-31T02:01:50;98219.38;;;25.35;67.54
22753;BME280;11543;43.144;24.684;2023-07-31T02:04:16;98222.41;;;25.34;67.22
22753;BME280;11543;43.144;24.684;2023-07-31T02:06:41;98239.75;;;25.45;67.33
22753;BME280;11543;43.144;24.684;2023-07-31T02:09:07;98235.31;;;25.38;66.98
22753;BME280;11543;43.144;24.684;2023-07-31T02:11:32;98232.59;;;25.38;66.94
22753;BME280;11543;43.144;24.684;2023-07-31T02:13:58;98224.56;;;25.32;66.61
22753;BME280;11543;43.144;24.684;2023-07-31T02:16:23;98231.50;;;25.39;66.63
22753;BME280;11543;43.144;24.684;2023-07-31T02:18:49;98235.31;;;25.38;66.18
22753;BME280;11543;43.144;24.684;2023-07-31T02:21:14;98227.63;;;25.35;66.42
22753;BME280;11543;43.144;24.684;2023-07-31T02:23:40;98226.53;;;25.36;66.06
22753;BME280;11543;43.144;24.684;2023-07-31T02:26:05;98234.22;;;25.39;66.25
22753;BME280;11543;43.144;24.684;2023-07-31T02:28:31;98231.97;;;25.26;67.00
22753;BME280;11543;43.144;24.684;2023-07-31T02:30:56;98232.78;;;25.27;67.07
22753;BME280;11543;43.144;24.684;2023-07-31T02:33:21;98243.25;;;25.30;67.13
22753;BME280;11543;43.144;24.684;2023-07-31T02:35:47;98245.69;;;25.26;67.59
22753;BME280;11543;43.144;24.684;2023-07-31T02:38:12;98244.53;;;25.17;68.13
22753;BME280;11543;43.144;24.684;2023-07-31T02:40:39;98245.91;;;25.20;68.13
22753;BME280;11543;43.144;24.684;2023-07-31T02:43:06;98248.25;;;25.06;69.14
22753;BME280;11543;43.144;24.684;2023-07-31T02:45:31;98247.44;;;25.05;68.70
22753;BME280;11543;43.144;24.684;2023-07-31T02:47:57;98263.06;;;25.05;68.80
22753;BME280;11543;43.144;24.684;2023-07-31T02:50:22;98268.03;;;25.08;68.66
22753;BME280;11543;43.144;24.684;2023-07-31T02:52:48;98254.81;;;25.00;68.67
22753;BME280;11543;43.144;24.684;2023-07-31T02:55:13;98274.31;;;25.03;68.42
22753;BME280;11543;43.144;24.684;2023-07-31T02:57:39;98269.34;;;25.00;68.36
22753;BME280;11543;43.144;24.684;2023-07-31T03:00:05;98265.81;;;25.05;68.34
22753;BME280;11543;43.144;24.684;2023-07-31T03:02:32;98260.06;;;25.06;67.77
22753;BME280;11543;43.144;24.684;2023-07-31T03:04:57;98271.03;;;25.06;68.21
22753;BME280;11543;43.144;24.684;2023-07-31T03:07:23;98263.63;;;25.07;67.74
22753;BME280;11543;43.144;24.684;2023-07-31T03:09:48;98266.16;;;25.14;67.54
22753;BME280;11543;43.144;24.684;2023-07-31T03:12:14;98259.00;;;25.13;66.88
22753;BME280;11543;43.144;24.684;2023-07-31T03:14:40;98274.75;;;25.22;66.70
22753;BME280;11543;43.144;24.684;2023-07-31T03:17:05;98277.81;;;25.26;66.69
22753;BME280;11543;43.144;24.684;2023-07-31T03:19:32;98276.44;;;25.28;66.91
22753;BME280;11543;43.144;24.684;2023-07-31T03:21:58;98282.78;;;25.29;66.50
22753;BME280;11543;43.144;24.684;2023-07-31T03:24:24;98261.50;;;25.14;66.75
22753;BME280;11543;43.144;24.684;2023-07-31T03:26:49;98273.63;;;25.18;66.91
22753;BME280;11543;43.144;24.684;2023-07-31T03:29:15;98280.81;;;25.24;66.72
22753;BME280;11543;43.144;24.684;2023-07-31T03:31:40;98264.84;;;25.16;66.72
22753;BME280;11543;43.144;24.684;2023-07-31T03:34:06;98275.28;;;25.19;66.74
22753;BME280;11543;43.144;24.684;2023-07-31T03:36:31;98263.41;;;25.14;67.13
22753;BME280;11543;43.144;24.684;2023-07-31T03:38:57;98268.34;;;25.12;67.12
22753;BME280;11543;43.144;24.684;2023-07-31T03:41:22;98275.19;;;25.09;67.47
22753;BME280;11543;43.144;24.684;2023-07-31T03:43:50;98290.63;;;25.15;67.53
22753;BME280;11543;43.144;24.684;2023-07-31T03:46:18;98288.94;;;25.14;67.95
22753;BME280;11543;43.144;24.684;2023-07-31T03:48:44;98274.09;;;25.10;67.60
22753;BME280;11543;43.144;24.684;2023-07-31T03:51:10;98296.94;;;25.16;67.46
22753;BME280;11543;43.144;24.684;2023-07-31T03:53:35;98295.78;;;25.12;68.05
22753;BME280;11543;43.144;24.684;2023-07-31T03:56:00;98295.44;;;25.03;68.21
22753;BME280;11543;43.144;24.684;2023-07-31T03:58:26;98278.28;;;24.91;68.65
22753;BME280;11543;43.144;24.684;2023-07-31T04:00:51;98279.91;;;24.87;69.01
22753;BME280;11543;43.144;24.684;2023-07-31T04:03:17;98291.66;;;24.82;69.63
22753;BME280;11543;43.144;24.684;2023-07-31T04:05:42;98294.66;;;24.81;69.88
22753;BME280;11543;43.144;24.684;2023-07-31T04:08:08;98300.06;;;24.70;69.95
22753;BME280;11543;43.144;24.684;2023-07-31T04:10:33;98302.25;;;24.68;69.71
22753;BME280;11543;43.144;24.684;2023-07-31T04:12:59;98313.25;;;24.73;69.82
22753;BME280;11543;43.144;24.684;2023-07-31T04:15:25;98305.56;;;24.70;69.80
22753;BME280;11543;43.144;24.684;2023-07-31T04:17:51;98309.44;;;24.74;69.57
22753;BME280;11543;43.144;24.684;2023-07-31T04:20:17;98319.41;;;24.86;69.66
22753;BME280;11543;43.144;24.684;2023-07-31T04:22:42;98307.81;;;24.78;69.49
22753;BME280;11543;43.144;24.684;2023-07-31T04:25:08;98321.59;;;24.84;70.08
22753;BME280;11543;43.144;24.684;2023-07-31T04:27:33;98312.28;;;24.85;70.19
22753;BME280;11543;43.144;24.684;2023-07-31T04:29:59;98323.56;;;24.88;70.02
22753;BME280;11543;43.144;24.684;2023-07-31T04:32:24;98327.69;;;24.91;69.57
22753;BME280;11543;43.144;24.684;2023-07-31T04:34:50;98308.97;;;24.83;70.08
22753;BME280;11543;43.144;24.684;2023-07-31T04:37:15;98330.00;;;24.99;70.28
22753;BME280;11543;43.144;24.684;2023-07-31T04:39:41;98324.38;;;24.89;69.96
22753;BME280;11543;43.144;24.684;2023-07-31T04:42:06;98329.09;;;24.93;70.04
22753;BME280;11543;43.144;24.684;2023-07-31T04:44:32;98314.53;;;24.93;69.42
22753;BME280;11543;43.144;24.684;2023-07-31T04:46:57;98328.94;;;25.05;69.07
22753;BME280;11543;43.144;24.684;2023-07-31T04:49:23;98326.78;;;25.07;68.60
22753;BME280;11543;43.144;24.684;2023-07-31T04:51:48;98331.84;;;25.20;68.09
22753;BME280;11543;43.144;24.684;2023-07-31T04:54:14;98342.09;;;25.30;67.97
22753;BME280;11543;43.144;24.684;2023-07-31T04:56:40;98326.41;;;25.25;67.72
22753;BME280;11543;43.144;24.684;2023-07-31T04:59:06;98334.72;;;25.35;67.84
22753;BME280;11543;43.144;24.684;2023-07-31T05:01:32;98339.69;;;25.38;67.62
22753;BME280;11543;43.144;24.684;2023-07-31T05:03:57;98327.56;;;25.34;67.71
22753;BME280;11543;43.144;24.684;2023-07-31T05:06:23;98337.75;;;25.39;68.22
22753;BME280;11543;43.144;24.684;2023-07-31T05:08:48;98334.19;;;25.38;68.24
22753;BME280;11543;43.144;24.684;2023-07-31T05:11:14;98346.31;;;25.43;68.80
22753;BME280;11543;43.144;24.684;2023-07-31T05:13:39;98314.63;;;25.30;68.60
22753;BME280;11543;43.144;24.684;2023-07-31T05:16:04;98318.16;;;25.25;68.89
22753;BME280;11543;43.144;24.684;2023-07-31T05:18:30;98324.22;;;25.27;68.33
22753;BME280;11543;43.144;24.684;2023-07-31T05:20:55;98334.63;;;25.25;68.11
22753;BME280;11543;43.144;24.684;2023-07-31T05:23:21;98344.50;;;25.21;68.12
22753;BME280;11543;43.144;24.684;2023-07-31T05:25:46;98327.00;;;25.00;68.26
22753;BME280;11543;43.144;24.684;2023-07-31T05:28:12;98343.25;;;25.07;68.40
22753;BME280;11543;43.144;24.684;2023-07-31T05:30:38;98327.16;;;24.94;68.02
22753;BME280;11543;43.144;24.684;2023-07-31T05:33:03;98341.28;;;25.02;68.04
22753;BME280;11543;43.144;24.684;2023-07-31T05:35:29;98326.09;;;24.95;67.56
22753;BME280;11543;43.144;24.684;2023-07-31T05:37:54;98321.16;;;24.97;67.19
22753;BME280;11543;43.144;24.684;2023-07-31T05:40:20;98338.28;;;25.04;67.41
22753;BME280;11543;43.144;24.684;2023-07-31T05:42:45;98322.84;;;24.98;67.72
22753;BME280;11543;43.144;24.684;2023-07-31T05:45:11;98341.38;;;25.13;67.87
22753;BME280;11543;43.144;24.684;2023-07-31T05:47:38;98334.03;;;25.18;68.14
22753;BME280;11543;43.144;24.684;2023-07-31T05:50:03;98333.50;;;25.21;69.11
22753;BME280;11543;43.144;24.684;2023-07-31T05:52:29;98333.06;;;25.34;69.08
22753;BME280;11543;43.144;24.684;2023-07-31T05:54:54;98331.22;;;25.45;68.10
22753;BME280;11543;43.144;24.684;2023-07-31T05:57:20;98323.59;;;25.57;67.60
22753;BME280;11543;43.144;24.684;2023-07-31T05:59:46;98336.69;;;25.77;67.48
22753;BME280;11543;43.144;24.684;2023-07-31T06:02:11;98341.97;;;25.89;66.79
22753;BME280;11543;43.144;24.684;2023-07-31T06:04:36;98314.41;;;25.74;65.98
22753;BME280;11543;43.144;24.684;2023-07-31T06:07:03;98334.53;;;25.89;66.16
22753;BME280;11543;43.144;24.684;2023-07-31T06:09:28;98334.38;;;26.01;65.29
22753;BME280;11543;43.144;24.684;2023-07-31T06:11:54;98340.72;;;26.07;64.89
22753;BME280;11543;43.144;24.684;2023-07-31T06:14:20;98339.63;;;26.13;63.66
22753;BME280;11543;43.144;24.684;2023-07-31T06:16:45;98344.63;;;26.21;64.21
22753;BME280;11543;43.144;24.684;2023-07-31T06:19:11;98354.53;;;26.22;63.60
22753;BME280;11543;43.144;24.684;2023-07-31T06:21:37;98347.63;;;26.14;63.03
22753;BME280;11543;43.144;24.684;2023-07-31T06:24:03;98328.06;;;26.06;61.83
22753;BME280;11543;43.144;24.684;2023-07-31T06:26:29;98346.78;;;26.09;61.25
22753;BME280;11543;43.144;24.684;2023-07-31T06:28:54;98343.03;;;25.83;62.50
22753;BME280;11543;43.144;24.684;2023-07-31T06:31:20;98364.28;;;25.97;63.37
22753;BME280;11543;43.144;24.684;2023-07-31T06:33:51;98333.97;;;25.82;64.41
22753;BME280;11543;43.144;24.684;2023-07-31T06:36:17;98345.00;;;25.92;63.51
22753;BME280;11543;43.144;24.684;2023-07-31T06:38:43;98351.16;;;26.05;63.79
22753;BME280;11543;43.144;24.684;2023-07-31T06:41:09;98350.06;;;26.06;63.39
22753;BME280;11543;43.144;24.684;2023-07-31T06:43:36;98345.72;;;26.20;63.10
22753;BME280;11543;43.144;24.684;2023-07-31T06:46:08;98345.25;;;26.33;60.92
22753;BME280;11543;43.144;24.684;2023-07-31T06:48:35;98339.75;;;26.33;60.39
22753;BME280;11543;43.144;24.684;2023-07-31T06:51:02;98355.47;;;26.43;59.39
22753;BME280;11543;43.144;24.684;2023-07-31T06:53:28;98342.53;;;26.38;59.05
22753;BME280;11543;43.144;24.684;2023-07-31T06:55:53;98340.91;;;26.47;58.85
22753;BME280;11543;43.144;24.684;2023-07-31T06:58:20;98339.78;;;26.43;59.16
22753;BME280;11543;43.144;24.684;2023-07-31T07:00:45;98350.81;;;26.53;59.21
22753;BME280;11543;43.144;24.684;2023-07-31T07:03:11;98340.91;;;26.47;59.97
22753;BME280;11543;43.144;24.684;2023-07-31T07:05:36;98339.31;;;26.66;59.25
22753;BME280;11543;43.144;24.684;2023-07-31T07:08:02;98364.09;;;26.82;58.46
22753;BME280;11543;43.144;24.684;2023-07-31T07:10:27;98359.72;;;26.86;57.47
22753;BME280;11543;43.144;24.684;2023-07-31T07:12:53;98363.94;;;26.99;57.22
22753;BME280;11543;43.144;24.684;2023-07-31T07:15:20;98363.09;;;26.98;56.22
22753;BME280;11543;43.144;24.684;2023-07-31T07:17:46;98367.50;;;27.04;56.49
22753;BME280;11543;43.144;24.684;2023-07-31T07:20:12;98366.44;;;27.20;56.19
22753;BME280;11543;43.144;24.684;2023-07-31T07:22:37;98353.75;;;27.19;55.23
22753;BME280;11543;43.144;24.684;2023-07-31T07:25:04;98366.44;;;27.20;55.26
22753;BME280;11543;43.144;24.684;2023-07-31T07:27:30;98363.13;;;27.28;55.58
22753;BME280;11543;43.144;24.684;2023-07-31T07:29:55;98355.97;;;27.27;55.79
22753;BME280;11543;43.144;24.684;2023-07-31T07:32:21;98373.03;;;27.45;55.53
22753;BME280;11543;43.144;24.684;2023-07-31T07:34:47;98380.19;;;27.56;54.21
22753;BME280;11543;43.144;24.684;2023-07-31T07:37:14;98373.06;;;27.65;54.27
22753;BME280;11543;43.144;24.684;2023-07-31T07:39:39;98371.38;;;27.59;54.70
22753;BME280;11543;43.144;24.684;2023-07-31T07:42:05;98394.00;;;27.81;54.79
22753;BME280;11543;43.144;24.684;2023-07-31T07:44:30;98400.63;;;27.85;54.31
22753;BME280;11543;43.144;24.684;2023-07-31T07:46:56;98398.38;;;27.98;52.39
22753;BME280;11543;43.144;24.684;2023-07-31T07:49:21;98378.81;;;27.94;52.32
22753;BME280;11543;43.144;24.684;2023-07-31T07:51:48;98374.41;;;27.98;51.50
22753;BME280;11543;43.144;24.684;2023-07-31T07:54:14;98388.13;;;28.18;50.23
22753;BME280;11543;43.144;24.684;2023-07-31T07:56:39;98384.53;;;28.33;49.96
22753;BME280;11543;43.144;24.684;2023-07-31T07:59:05;98376.78;;;28.35;49.37
22753;BME280;11543;43.144;24.684;2023-07-31T08:01:30;98375.63;;;28.46;50.36
22753;BME280;11543;43.144;24.684;2023-07-31T08:03:57;98378.63;;;28.55;49.97
22753;BME280;11543;43.144;24.684;2023-07-31T08:06:23;98376.41;;;28.57;49.48
22753;BME280;11543;43.144;24.684;2023-07-31T08:08:48;98377.75;;;28.70;49.57
22753;BME280;11543;43.144;24.684;2023-07-31T08:11:14;98367.84;;;28.64;49.02
22753;BME280;11543;43.144;24.684;2023-07-31T08:13:39;98371.16;;;28.66;49.40
22753;BME280;11543;43.144;24.684;2023-07-31T08:16:05;98380.00;;;28.68;48.80
22753;BME280;11543;43.144;24.684;2023-07-31T08:18:31;98379.75;;;28.54;49.72
22753;BME280;11543;43.144;24.684;2023-07-31T08:20:56;98380.34;;;28.41;50.25
22753;BME280;11543;43.144;24.684;2023-07-31T08:23:22;98356.38;;;28.36;50.33
22753;BME280;11543;43.144;24.684;2023-07-31T08:25:48;98372.88;;;28.46;50.74
22753;BME280;11543;43.144;24.684;2023-07-31T08:28:15;98369.59;;;28.44;50.06
22753;BME280;11543;43.144;24.684;2023-07-31T08:30:41;98381.13;;;28.51;50.16
22753;BME280;11543;43.144;24.684;2023-07-31T08:33:07;98364.06;;;28.44;50.06
22753;BME280;11543;43.144;24.684;2023-07-31T08:35:32;98379.19;;;28.52;49.95
22753;BME280;11543;43.144;24.684;2023-07-31T08:37:58;98369.25;;;28.61;49.24
22753;BME280;11543;43.144;24.684;2023-07-31T08:40:23;98383.22;;;28.80;49.22
22753;BME280;11543;43.144;24.684;2023-07-31T08:42:51;98381.25;;;28.91;49.20
22753;BME280;11543;43.144;24.684;2023-07-31T08:45:18;98376.53;;;28.96;48.46
22753;BME280;11543;43.144;24.684;2023-07-31T08:47:48;98369.97;;;28.82;48.88
22753;BME280;11543;43.144;24.684;2023-07-31T08:50:16;98387.00;;;28.99;49.20
22753;BME280;11543;43.144;24.684;2023-07-31T08:52:42;98370.19;;;28.96;50.01
22753;BME280;11543;43.144;24.684;2023-07-31T08:55:08;98368.47;;;29.05;48.88
22753;BME280;11543;43.144;24.684;2023-07-31T08:57:36;98376.41;;;29.16;48.59
22753;BME280;11543;43.144;24.684;2023-07-31T09:00:06;98377.47;;;29.21;48.70
22753;BME280;11543;43.144;24.684;2023-07-31T09:02:46;98380.63;;;29.43;47.39
22753;BME280;11543;43.144;24.684;2023-07-31T09:05:13;98391.41;;;29.50;47.26
22753;BME280;11543;43.144;24.684;2023-07-31T09:07:40;98383.94;;;29.45;48.48
22753;BME280;11543;43.144;24.684;2023-07-31T09:10:06;98380.06;;;29.46;47.76
22753;BME280;11543;43.144;24.684;2023-07-31T09:12:32;98381.06;;;29.60;46.97
22753;BME280;11543;43.144;24.684;2023-07-31T09:14:58;98374.38;;;29.66;46.39
22753;BME280;11543;43.144;24.684;2023-07-31T09:19:56;98371.72;;;29.56;46.99
22753;BME280;11543;43.144;24.684;2023-07-31T09:22:33;98370.66;;;29.47;46.85
22753;BME280;11543;43.144;24.684;2023-07-31T09:25:28;98392.22;;;29.50;47.27
22753;BME280;11543;43.144;24.684;2023-07-31T09:30:20;98392.81;;;29.37;47.54
22753;BME280;11543;43.144;24.684;2023-07-31T09:32:47;98391.81;;;29.23;48.15
22753;BME280;11543;43.144;24.684;2023-07-31T09:35:22;98378.72;;;28.99;48.46
22753;BME280;11543;43.144;24.684;2023-07-31T09:37:56;98391.75;;;28.94;48.72
22753;BME280;11543;43.144;24.684;2023-07-31T09:40:36;98386.53;;;28.82;48.85
22753;BME280;11543;43.144;24.684;2023-07-31T09:43:04;98354.78;;;28.79;48.48
22753;BME280;11543;43.144;24.684;2023-07-31T09:45:33;98367.22;;;28.77;49.30
22753;BME280;11543;43.144;24.684;2023-07-31T09:47:59;98373.84;;;28.81;49.28
22753;BME280;11543;43.144;24.684;2023-07-31T09:50:25;98380.97;;;28.92;49.23
22753;BME280;11543;43.144;24.684;2023-07-31T09:52:52;98371.00;;;28.96;49.57
22753;BME280;11543;43.144;24.684;2023-07-31T09:55:18;98369.88;;;29.02;49.24
22753;BME280;11543;43.144;24.684;2023-07-31T09:57:48;98398.50;;;29.16;48.71
22753;BME280;11543;43.144;24.684;2023-07-31T10:00:18;98375.31;;;29.12;48.89
22753;BME280;11543;43.144;24.684;2023-07-31T10:02:47;98367.00;;;29.17;48.88
22753;BME280;11543;43.144;24.684;2023-07-31T10:05:14;98389.50;;;29.35;48.45
22753;BME280;11543;43.144;24.684;2023-07-31T10:07:43;98388.94;;;29.38;48.63
22753;BME280;11543;43.144;24.684;2023-07-31T10:10:11;98383.41;;;29.38;49.01
22753;BME280;11543;43.144;24.684;2023-07-31T10:12:37;98371.13;;;29.20;48.43
22753;BME280;11543;43.144;24.684;2023-07-31T10:15:03;98381.34;;;29.20;48.73
22753;BME280;11543;43.144;24.684;2023-07-31T10:17:30;98394.53;;;29.28;48.96
22753;BME280;11543;43.144;24.684;2023-07-31T10:19:57;98387.28;;;29.37;47.65
22753;BME280;11543;43.144;24.684;2023-07-31T10:22:24;98375.25;;;29.23;48.24
22753;BME280;11543;43.144;24.684;2023-07-31T10:24:52;98385.16;;;29.29;48.68
22753;BME280;11543;43.144;24.684;2023-07-31T10:27:20;98385.72;;;29.26;48.34
22753;BME280;11543;43.144;24.684;2023-07-31T10:29:47;98364.72;;;29.25;47.32
22753;BME280;11543;43.144;24.684;2023-07-31T10:32:14;98398.88;;;29.49;47.08
22753;BME280;11543;43.144;24.684;2023-07-31T10:34:41;98390.00;;;29.42;47.66
22753;BME280;11543;43.144;24.684;2023-07-31T10:37:27;98379.25;;;29.40;47.59
22753;BME280;11543;43.144;24.684;2023-07-31T10:42:45;98393.03;;;29.51;47.97
22753;BME280;11543;43.144;24.684;2023-07-31T10:45:12;98380.88;;;29.46;48.30
22753;BME280;11543;43.144;24.684;2023-07-31T10:47:42;98377.28;;;29.51;47.71
22753;BME280;11543;43.144;24.684;2023-07-31T10:50:19;98382.38;;;29.68;47.65
22753;BME280;11543;43.144;24.684;2023-07-31T10:52:47;98360.81;;;29.70;46.62
22753;BME280;11543;43.144;24.684;2023-07-31T10:55:39;98370.88;;;29.85;46.16
22753;BME280;11543;43.144;24.684;2023-07-31T10:58:13;98377.00;;;29.82;46.99
22753;BME280;11543;43.144;24.684;2023-07-31T11:00:43;98373.66;;;29.85;46.69
22753;BME280;11543;43.144;24.684;2023-07-31T11:03:11;98378.53;;;29.93;47.08
22753;BME280;11543;43.144;24.684;2023-07-31T11:06:00;98374.59;;;29.99;46.70
22753;BME280;11543;43.144;24.684;2023-07-31T11:08:30;98359.25;;;29.88;47.07
22753;BME280;11543;43.144;24.684;2023-07-31T11:11:10;98350.41;;;29.86;46.83
22753;BME280;11543;43.144;24.684;2023-07-31T11:13:52;98359.63;;;30.05;46.18
22753;BME280;11543;43.144;24.684;2023-07-31T11:16:24;98367.28;;;30.13;46.28
22753;BME280;11543;43.144;24.684;2023-07-31T11:22:11;98350.09;;;30.16;45.86
22753;BME280;11543;43.144;24.684;2023-07-31T11:24:37;98344.44;;;30.26;45.50
22753;BME280;11543;43.144;24.684;2023-07-31T11:27:07;98333.59;;;30.30;45.36
22753;BME280;11543;43.144;24.684;2023-07-31T11:29:33;98336.06;;;30.31;46.05
22753;BME280;11543;43.144;24.684;2023-07-31T11:31:58;98326.66;;;30.32;46.08
22753;BME280;11543;43.144;24.684;2023-07-31T11:34:24;98341.91;;;30.54;45.86
22753;BME280;11543;43.144;24.684;2023-07-31T11:36:56;98342.44;;;30.56;46.24
22753;BME280;11543;43.144;24.684;2023-07-31T11:39:21;98348.84;;;30.75;45.99
22753;BME280;11543;43.144;24.684;2023-07-31T11:41:47;98345.75;;;30.95;45.91
22753;BME280;11543;43.144;24.684;2023-07-31T11:44:12;98329.81;;;31.06;43.85
22753;BME280;11543;43.144;24.684;2023-07-31T11:46:38;98323.88;;;31.13;44.03
22753;BME280;11543;43.144;24.684;2023-07-31T11:49:04;98314.09;;;31.20;44.26
22753;BME280;11543;43.144;24.684;2023-07-31T11:51:29;98313.72;;;31.59;43.31
22753;BME280;11543;43.144;24.684;2023-07-31T11:53:57;98304.00;;;31.76;43.45
22753;BME280;11543;43.144;24.684;2023-07-31T11:56:25;98306.50;;;31.91;43.31
22753;BME280;11543;43.144;24.684;2023-07-31T11:58:57;98309.81;;;32.20;42.05
22753;BME280;11543;43.144;24.684;2023-07-31T12:01:24;98284.94;;;32.29;41.52
22753;BME280;11543;43.144;24.684;2023-07-31T12:03:50;98298.47;;;32.58;41.46
22753;BME280;11543;43.144;24.684;2023-07-31T12:06:17;98281.56;;;32.68;41.04
22753;BME280;11543;43.144;24.684;2023-07-31T12:08:42;98260.16;;;32.82;40.63
22753;BME280;11543;43.144;24.684;2023-07-31T12:11:09;98276.84;;;33.27;40.17
22753;BME280;11543;43.144;24.684;2023-07-31T12:13:35;98270.41;;;33.40;39.46
22753;BME280;11543;43.144;24.684;2023-07-31T12:16:02;98269.06;;;33.60;39.45
22753;BME280;11543;43.144;24.684;2023-07-31T12:18:29;98260.47;;;33.79;39.21
22753;BME280;11543;43.144;24.684;2023-07-31T12:20:57;98264.38;;;33.78;39.26
22753;BME280;11543;43.144;24.684;2023-07-31T12:23:30;98244.97;;;33.55;39.24
22753;BME280;11543;43.144;24.684;2023-07-31T12:26:15;98266.59;;;33.59;39.45
22753;BME280;11543;43.144;24.684;2023-07-31T12:31:18;98258.59;;;33.12;39.99
22753;BME280;11543;43.144;24.684;2023-07-31T12:33:45;98270.59;;;32.99;40.56
22753;BME280;11543;43.144;24.684;2023-07-31T12:36:13;98265.06;;;32.99;40.40
22753;BME280;11543;43.144;24.684;2023-07-31T12:38:39;98266.09;;;32.89;40.52
22753;BME280;11543;43.144;24.684;2023-07-31T12:41:05;98281.75;;;32.85;40.38
22753;BME280;11543;43.144;24.684;2023-07-31T12:43:32;98252.84;;;32.73;40.32
22753;BME280;11543;43.144;24.684;2023-07-31T12:45:58;98258.34;;;32.64;39.43
22753;BME280;11543;43.144;24.684;2023-07-31T12:48:24;98241.28;;;32.57;39.36
22753;BME280;11543;43.144;24.684;2023-07-31T12:50:49;98254.59;;;32.82;39.32
22753;BME280;11543;43.144;24.684;2023-07-31T12:53:15;98227.63;;;32.83;38.85
22753;BME280;11543;43.144;24.684;2023-07-31T12:55:41;98226.97;;;33.00;39.19
22753;BME280;11543;43.144;24.684;2023-07-31T12:58:06;98231.00;;;33.16;39.03
22753;BME280;11543;43.144;24.684;2023-07-31T13:00:31;98230.47;;;33.36;38.22
22753;BME280;11543;43.144;24.684;2023-07-31T13:02:57;98229.97;;;33.65;36.33
22753;BME280;11543;43.144;24.684;2023-07-31T13:05:23;98234.28;;;33.80;35.60
22753;BME280;11543;43.144;24.684;2023-07-31T13:07:48;98235.03;;;33.94;35.06
22753;BME280;11543;43.144;24.684;2023-07-31T13:10:14;98213.66;;;33.81;35.74